Time;durP1;ratioP1;P1;durP2;ratioP2;P2;SDS_P1;SDS_P2;PMS_P1;PMS_P2;Temp;Humidity;BMP_temperature;BMP_pressure;BME280_temperature;BME280_humidity;BME280_pressure;Samples;Min_cycle;Max_cycle;Signal;HPM_P1;HPM_P2
2023/06/06 00:00:53;;;;;;;26.53;24.40;;;;;;;;;;5055097;28;20517;-81
2023/06/06 00:03:21;;;;;;;24.53;22.70;;;;;;;;;;5056155;28;20424;-81
2023/06/06 00:05:49;;;;;;;24.37;22.67;;;;;;;;;;5055670;28;20456;-81
2023/06/06 00:08:19;;;;;;;25.30;23.30;;;;;;;;;;5055994;28;20457;-82
2023/06/06 00:10:46;;;;;;;24.20;22.70;;;;;;;;;;5055916;28;20875;-81
2023/06/06 00:13:15;;;;;;;25.17;23.50;;;;;;;;;;5055710;28;20431;-81
2023/06/06 00:15:44;;;;;;;25.30;23.50;;;;;;;;;;5055103;28;20510;-81
2023/06/06 00:18:11;;;;;;;24.77;23.20;;;;;;;;;;5055512;28;20417;-81
2023/06/06 00:20:39;;;;;;;24.60;23.00;;;;;;;;;;5054608;28;21059;-81
2023/06/06 00:23:07;;;;;;;26.30;24.20;;;;;;;;;;5055549;28;20456;-81
2023/06/06 00:25:34;;;;;;;24.10;22.23;;;;;;;;;;5054998;28;20828;-81
2023/06/06 00:28:01;;;;;;;23.87;22.37;;;;;;;;;;5055993;28;20458;-81
2023/06/06 00:30:29;;;;;;;25.10;23.40;;;;;;;;;;5055240;28;20805;-81
2023/06/06 00:32:56;;;;;;;25.20;23.50;;;;;;;;;;5055642;28;20455;-82
2023/06/06 00:35:23;;;;;;;25.43;23.30;;;;;;;;;;5055457;28;20440;-81
2023/06/06 00:37:51;;;;;;;24.77;22.87;;;;;;;;;;5054328;28;20430;-81
2023/06/06 00:40:18;;;;;;;26.90;24.60;;;;;;;;;;5055273;28;20491;-82
2023/06/06 00:42:45;;;;;;;25.47;23.20;;;;;;;;;;5062436;28;20452;-82
2023/06/06 00:45:12;;;;;;;24.83;22.80;;;;;;;;;;5062046;28;20431;-82
2023/06/06 00:47:41;;;;;;;24.67;22.67;;;;;;;;;;5060184;28;20506;-83
2023/06/06 00:50:12;;;;;;;25.23;23.40;;;;;;;;;;5058035;28;20529;-85
2023/06/06 00:52:39;;;;;;;26.43;24.30;;;;;;;;;;5056704;28;20463;-82
2023/06/06 00:55:07;;;;;;;23.77;22.27;;;;;;;;;;5057835;28;20481;-83
2023/06/06 00:57:35;;;;;;;26.00;24.00;;;;;;;;;;5056737;28;20545;-83
2023/06/06 01:00:06;;;;;;;26.37;23.90;;;;;;;;;;5056827;28;20485;-82
2023/06/06 01:02:37;;;;;;;26.37;24.07;;;;;;;;;;5056312;28;20475;-82
2023/06/06 01:05:06;;;;;;;25.70;23.47;;;;;;;;;;5056753;28;20488;-82
2023/06/06 01:07:35;;;;;;;24.93;23.20;;;;;;;;;;5055423;28;20419;-81
2023/06/06 01:10:02;;;;;;;25.00;23.10;;;;;;;;;;5056940;28;20481;-82
2023/06/06 01:12:32;;;;;;;25.67;23.77;;;;;;;;;;5056850;28;20448;-82
2023/06/06 01:15:02;;;;;;;25.90;23.87;;;;;;;;;;5056243;28;20458;-82
2023/06/06 01:17:29;;;;;;;25.13;23.17;;;;;;;;;;5055230;28;20481;-82
2023/06/06 01:19:57;;;;;;;24.67;22.70;;;;;;;;;;5055974;28;20543;-82
2023/06/06 01:22:27;;;;;;;26.10;23.60;;;;;;;;;;5055829;28;20453;-82
2023/06/06 01:24:54;;;;;;;24.70;23.00;;;;;;;;;;5056393;28;20441;-82
2023/06/06 01:27:22;;;;;;;24.77;22.97;;;;;;;;;;5055458;28;20852;-82
2023/06/06 01:29:49;;;;;;;24.37;22.63;;;;;;;;;;5054336;28;20479;-81
2023/06/06 01:32:20;;;;;;;24.73;22.83;;;;;;;;;;5053940;28;20464;-80
2023/06/06 01:34:50;;;;;;;26.50;24.40;;;;;;;;;;5054344;28;20487;-82
2023/06/06 01:37:21;;;;;;;24.23;22.53;;;;;;;;;;5053911;28;20547;-81
2023/06/06 01:39:50;;;;;;;25.53;23.70;;;;;;;;;;5053784;28;20875;-81
2023/06/06 01:42:17;;;;;;;24.87;23.10;;;;;;;;;;5054299;28;21169;-81
2023/06/06 01:44:44;;;;;;;26.40;24.50;;;;;;;;;;5054282;28;20430;-81
2023/06/06 01:47:11;;;;;;;26.50;24.57;;;;;;;;;;5053618;28;20455;-81
2023/06/06 01:49:38;;;;;;;25.73;23.47;;;;;;;;;;5052829;28;20529;-81
2023/06/06 01:52:08;;;;;;;24.57;22.77;;;;;;;;;;5054093;28;20428;-82
2023/06/06 01:54:36;;;;;;;24.77;22.97;;;;;;;;;;5054075;28;20962;-81
2023/06/06 01:57:05;;;;;;;25.10;23.23;;;;;;;;;;5053835;28;20557;-80
2023/06/06 01:59:32;;;;;;;25.63;23.73;;;;;;;;;;5055347;28;20481;-79
2023/06/06 02:02:00;;;;;;;25.67;23.93;;;;;;;;;;5054120;28;20455;-80
2023/06/06 02:04:27;;;;;;;27.50;24.83;;;;;;;;;;5053839;28;20465;-80
2023/06/06 02:06:55;;;;;;;25.80;23.70;;;;;;;;;;5053007;28;21008;-80
2023/06/06 02:09:22;;;;;;;28.23;25.80;;;;;;;;;;5052939;28;21063;-80
2023/06/06 02:11:49;;;;;;;25.37;23.53;;;;;;;;;;5053880;28;20443;-80
2023/06/06 02:14:18;;;;;;;27.43;25.00;;;;;;;;;;5053695;28;20518;-80
2023/06/06 02:16:48;;;;;;;25.37;23.30;;;;;;;;;;5052951;28;20480;-80
2023/06/06 02:19:15;;;;;;;24.67;23.00;;;;;;;;;;5053830;28;20464;-79
2023/06/06 02:21:42;;;;;;;25.00;23.20;;;;;;;;;;5053146;28;20470;-81
2023/06/06 02:24:09;;;;;;;25.97;24.03;;;;;;;;;;5053854;28;20775;-80
2023/06/06 02:26:36;;;;;;;27.70;24.87;;;;;;;;;;5053202;28;20448;-80
2023/06/06 02:29:03;;;;;;;26.20;24.23;;;;;;;;;;5053643;28;20799;-79
2023/06/06 02:31:32;;;;;;;27.87;25.57;;;;;;;;;;5053569;28;20472;-80
2023/06/06 02:33:59;;;;;;;25.03;23.03;;;;;;;;;;5053855;28;20444;-81
2023/06/06 02:36:29;;;;;;;27.50;25.20;;;;;;;;;;5052898;28;20540;-80
2023/06/06 02:38:56;;;;;;;26.20;24.30;;;;;;;;;;5052638;28;20490;-80
2023/06/06 02:41:23;;;;;;;27.27;24.93;;;;;;;;;;5053371;28;20822;-81
2023/06/06 02:43:50;;;;;;;25.60;23.80;;;;;;;;;;5053676;28;20575;-80
2023/06/06 02:46:18;;;;;;;27.50;25.10;;;;;;;;;;5053070;28;20453;-80
2023/06/06 02:48:48;;;;;;;26.70;24.60;;;;;;;;;;5053458;28;20455;-80
2023/06/06 02:51:16;;;;;;;26.50;24.50;;;;;;;;;;5052687;28;20476;-79
2023/06/06 02:53:43;;;;;;;26.17;24.00;;;;;;;;;;5053408;28;20511;-80
2023/06/06 02:56:10;;;;;;;25.20;23.30;;;;;;;;;;5052309;28;20455;-80
2023/06/06 02:58:37;;;;;;;27.50;25.10;;;;;;;;;;5052993;28;20459;-79
2023/06/06 03:01:05;;;;;;;26.33;24.40;;;;;;;;;;5053427;28;20476;-79
2023/06/06 03:03:32;;;;;;;25.40;23.43;;;;;;;;;;5057157;28;21012;-78
2023/06/06 03:06:00;;;;;;;28.47;26.17;;;;;;;;;;5056591;28;20514;-80
2023/06/06 03:08:28;;;;;;;26.17;23.97;;;;;;;;;;5057281;28;20459;-79
2023/06/06 03:10:55;;;;;;;26.17;24.07;;;;;;;;;;5057076;28;20550;-81
2023/06/06 03:13:22;;;;;;;27.13;25.03;;;;;;;;;;5056778;28;20510;-80
2023/06/06 03:15:49;;;;;;;26.40;24.20;;;;;;;;;;5056180;28;20463;-80
2023/06/06 03:18:18;;;;;;;27.70;25.43;;;;;;;;;;5056353;28;20586;-78
2023/06/06 03:20:46;;;;;;;27.03;24.73;;;;;;;;;;5055440;28;20487;-78
2023/06/06 03:23:15;;;;;;;27.40;25.00;;;;;;;;;;5056452;28;20456;-80
2023/06/06 03:25:43;;;;;;;25.10;23.27;;;;;;;;;;5056047;28;20525;-78
2023/06/06 03:28:10;;;;;;;26.37;24.47;;;;;;;;;;5056468;28;20494;-78
2023/06/06 03:30:37;;;;;;;27.23;25.23;;;;;;;;;;5056401;28;20914;-79
2023/06/06 03:33:06;;;;;;;28.43;26.10;;;;;;;;;;5058828;28;20947;-79
2023/06/06 03:35:33;;;;;;;27.03;24.53;;;;;;;;;;5056808;28;20536;-79
2023/06/06 03:38:00;;;;;;;27.63;25.53;;;;;;;;;;5057037;28;20839;-78
2023/06/06 03:40:29;;;;;;;26.97;24.87;;;;;;;;;;5055840;28;21271;-79
2023/06/06 03:42:56;;;;;;;26.60;24.70;;;;;;;;;;5056946;28;20455;-79
2023/06/06 03:45:23;;;;;;;26.63;24.50;;;;;;;;;;5056980;28;20447;-78
2023/06/06 03:47:51;;;;;;;26.43;24.40;;;;;;;;;;5056330;28;20475;-79
2023/06/06 03:50:19;;;;;;;25.63;23.73;;;;;;;;;;5055283;28;20512;-79
2023/06/06 03:52:46;;;;;;;25.30;23.40;;;;;;;;;;5055912;28;20462;-78
2023/06/06 03:55:13;;;;;;;26.10;24.07;;;;;;;;;;5056151;28;20547;-78
2023/06/06 03:57:42;;;;;;;26.33;24.43;;;;;;;;;;5063703;28;20460;-77
2023/06/06 04:00:11;;;;;;;25.17;23.37;;;;;;;;;;5079443;28;20471;-78
2023/06/06 04:02:38;;;;;;;24.67;23.00;;;;;;;;;;5078477;28;20529;-78
2023/06/06 04:05:05;;;;;;;25.90;24.00;;;;;;;;;;5065673;28;20451;-79
2023/06/06 04:07:32;;;;;;;24.73;23.03;;;;;;;;;;5055916;28;20448;-78
2023/06/06 04:09:59;;;;;;;26.20;24.20;;;;;;;;;;5056920;28;20471;-78
2023/06/06 04:12:26;;;;;;;25.57;23.50;;;;;;;;;;5055835;28;20448;-79
2023/06/06 04:14:55;;;;;;;25.30;23.10;;;;;;;;;;5056317;28;20449;-79
2023/06/06 04:17:22;;;;;;;24.10;22.40;;;;;;;;;;5055926;28;20478;-79
2023/06/06 04:19:49;;;;;;;24.93;23.03;;;;;;;;;;5056089;28;20472;-80
2023/06/06 04:22:16;;;;;;;23.57;21.87;;;;;;;;;;5056174;28;20421;-80
2023/06/06 04:24:43;;;;;;;25.63;23.63;;;;;;;;;;5055608;28;20517;-79
2023/06/06 04:27:10;;;;;;;26.43;24.30;;;;;;;;;;5055455;28;20994;-80
2023/06/06 04:29:40;;;;;;;26.33;24.43;;;;;;;;;;5055820;28;20487;-80
2023/06/06 04:32:09;;;;;;;26.37;24.27;;;;;;;;;;5055667;28;20804;-78
2023/06/06 04:34:39;;;;;;;25.07;23.13;;;;;;;;;;5055980;28;20465;-79
2023/06/06 04:37:07;;;;;;;25.37;23.37;;;;;;;;;;5058389;28;20504;-79
2023/06/06 04:39:34;;;;;;;26.13;23.63;;;;;;;;;;5055376;28;21033;-78
2023/06/06 04:42:01;;;;;;;26.03;24.13;;;;;;;;;;5055661;28;20450;-81
2023/06/06 04:44:28;;;;;;;27.03;24.93;;;;;;;;;;5055455;28;20514;-78
2023/06/06 04:47:00;;;;;;;28.50;26.30;;;;;;;;;;5055710;28;20456;-78
2023/06/06 04:49:30;;;;;;;26.33;24.33;;;;;;;;;;5054741;28;20909;-78
2023/06/06 04:51:59;;;;;;;25.73;24.03;;;;;;;;;;5055435;28;20741;-79
2023/06/06 04:54:27;;;;;;;27.53;25.37;;;;;;;;;;5055190;28;20453;-79
2023/06/06 04:56:56;;;;;;;25.63;23.30;;;;;;;;;;5054209;28;21031;-79
2023/06/06 04:59:24;;;;;;;27.30;24.83;;;;;;;;;;5055342;28;20458;-78
2023/06/06 05:01:52;;;;;;;25.97;24.17;;;;;;;;;;5055161;28;20437;-79
2023/06/06 05:04:20;;;;;;;28.63;26.40;;;;;;;;;;5055302;28;20854;-79
2023/06/06 05:06:48;;;;;;;26.20;24.10;;;;;;;;;;5054551;28;20459;-79
2023/06/06 05:09:15;;;;;;;28.23;26.07;;;;;;;;;;5054367;28;20519;-79
2023/06/06 05:11:46;;;;;;;26.83;24.60;;;;;;;;;;5055147;28;20456;-80
2023/06/06 05:14:13;;;;;;;26.83;24.70;;;;;;;;;;5054470;28;20437;-79
2023/06/06 05:16:40;;;;;;;26.47;24.57;;;;;;;;;;5053609;28;21057;-78
2023/06/06 05:19:07;;;;;;;26.00;24.13;;;;;;;;;;5054188;28;20999;-78
2023/06/06 05:21:35;;;;;;;25.10;23.20;;;;;;;;;;5053373;28;21040;-78
2023/06/06 05:24:04;;;;;;;27.57;25.47;;;;;;;;;;5053503;28;20457;-79
2023/06/06 05:26:31;;;;;;;26.90;24.70;;;;;;;;;;5054039;28;20437;-80
2023/06/06 05:28:58;;;;;;;25.30;23.53;;;;;;;;;;5055428;28;20437;-80
2023/06/06 05:31:25;;;;;;;25.97;24.07;;;;;;;;;;5055636;28;20471;-80
2023/06/06 05:33:53;;;;;;;26.07;24.10;;;;;;;;;;5055284;28;21140;-80
2023/06/06 05:36:20;;;;;;;26.17;24.17;;;;;;;;;;5057129;28;20552;-79
2023/06/06 05:38:47;;;;;;;25.73;23.93;;;;;;;;;;5054202;28;20493;-79
2023/06/06 05:41:15;;;;;;;26.73;24.57;;;;;;;;;;5054849;28;20526;-79
2023/06/06 05:43:46;;;;;;;25.67;23.63;;;;;;;;;;5055141;28;20451;-79
2023/06/06 05:46:13;;;;;;;26.33;24.43;;;;;;;;;;5054533;28;20452;-79
2023/06/06 05:48:40;;;;;;;26.77;24.87;;;;;;;;;;5054875;28;20503;-79
2023/06/06 05:51:08;;;;;;;26.67;24.40;;;;;;;;;;5054000;28;20471;-80
2023/06/06 05:53:35;;;;;;;27.00;24.97;;;;;;;;;;5054780;28;20461;-79
2023/06/06 05:56:02;;;;;;;27.53;25.07;;;;;;;;;;5054315;28;20456;-79
2023/06/06 05:58:30;;;;;;;27.33;25.13;;;;;;;;;;5054896;28;20479;-79
2023/06/06 06:00:57;;;;;;;26.37;24.37;;;;;;;;;;5053990;28;20538;-79
2023/06/06 06:03:25;;;;;;;26.83;25.03;;;;;;;;;;5054731;28;20419;-80
2023/06/06 06:05:52;;;;;;;25.97;23.80;;;;;;;;;;5054008;28;20456;-79
2023/06/06 06:08:21;;;;;;;27.07;24.97;;;;;;;;;;5054530;28;20444;-79
2023/06/06 06:10:48;;;;;;;28.17;26.03;;;;;;;;;;5054500;28;20484;-79
2023/06/06 06:13:15;;;;;;;27.20;25.20;;;;;;;;;;5054372;28;20428;-79
2023/06/06 06:15:43;;;;;;;27.47;25.30;;;;;;;;;;5054019;28;20452;-79
2023/06/06 06:18:10;;;;;;;26.27;24.40;;;;;;;;;;5054293;28;20459;-79
2023/06/06 06:20:37;;;;;;;26.00;24.17;;;;;;;;;;5053186;28;21039;-78
2023/06/06 06:23:04;;;;;;;27.53;25.40;;;;;;;;;;5054164;28;20899;-78
2023/06/06 06:25:31;;;;;;;26.80;25.00;;;;;;;;;;5053460;28;20427;-78
2023/06/06 06:27:58;;;;;;;26.53;24.67;;;;;;;;;;5053948;28;20456;-78
2023/06/06 06:30:27;;;;;;;28.10;25.90;;;;;;;;;;5053255;28;21084;-77
2023/06/06 06:32:56;;;;;;;27.60;25.47;;;;;;;;;;5054176;28;20482;-78
2023/06/06 06:35:23;;;;;;;28.70;26.23;;;;;;;;;;5054269;28;20458;-79
2023/06/06 06:37:50;;;;;;;27.27;25.57;;;;;;;;;;5057544;28;20873;-79
2023/06/06 06:40:17;;;;;;;27.03;25.07;;;;;;;;;;5057078;28;20493;-78
2023/06/06 06:42:44;;;;;;;28.97;26.93;;;;;;;;;;5057006;28;20948;-78
2023/06/06 06:45:13;;;;;;;26.03;24.33;;;;;;;;;;5057206;28;20859;-78
2023/06/06 06:47:40;;;;;;;28.10;25.73;;;;;;;;;;5057037;28;20479;-78
2023/06/06 06:50:11;;;;;;;26.73;24.77;;;;;;;;;;5057239;28;20476;-78
2023/06/06 06:52:38;;;;;;;26.90;24.90;;;;;;;;;;5056430;28;20501;-78
2023/06/06 06:55:05;;;;;;;27.83;25.73;;;;;;;;;;5057140;28;20458;-78
2023/06/06 06:57:33;;;;;;;25.77;24.07;;;;;;;;;;5056410;28;20619;-78
2023/06/06 07:00:08;;;;;;;26.07;24.27;;;;;;;;;;5057385;28;20811;-80
2023/06/06 07:02:39;;;;;;;28.10;26.10;;;;;;;;;;5075900;28;20458;-77
2023/06/06 07:05:07;;;;;;;26.53;24.80;;;;;;;;;;5075699;28;20454;-74
2023/06/06 07:07:35;;;;;;;27.50;25.37;;;;;;;;;;5075135;28;20433;-76
2023/06/06 07:10:02;;;;;;;25.60;23.60;;;;;;;;;;5075047;28;20474;-75
2023/06/06 07:12:29;;;;;;;26.77;24.97;;;;;;;;;;5075273;28;20443;-75
2023/06/06 07:14:56;;;;;;;25.57;23.70;;;;;;;;;;5074690;28;20485;-75
2023/06/06 07:17:25;;;;;;;26.37;24.43;;;;;;;;;;5074480;28;20940;-75
2023/06/06 07:19:52;;;;;;;27.20;25.10;;;;;;;;;;5075367;28;20794;-75
2023/06/06 07:22:19;;;;;;;25.03;23.33;;;;;;;;;;5075365;28;20456;-75
2023/06/06 07:24:47;;;;;;;29.53;27.33;;;;;;;;;;5074626;28;20457;-74
2023/06/06 07:27:15;;;;;;;27.93;25.73;;;;;;;;;;5074801;28;20453;-75
2023/06/06 07:29:42;;;;;;;27.90;25.80;;;;;;;;;;5075092;28;20470;-75
2023/06/06 07:32:09;;;;;;;27.43;25.40;;;;;;;;;;5074910;28;20857;-76
2023/06/06 07:34:36;;;;;;;27.33;25.40;;;;;;;;;;5074332;28;20835;-75
2023/06/06 07:37:03;;;;;;;26.63;24.73;;;;;;;;;;5074382;28;20982;-76
2023/06/06 07:39:30;;;;;;;25.63;23.73;;;;;;;;;;5074472;28;20492;-75
2023/06/06 07:41:59;;;;;;;26.20;24.50;;;;;;;;;;5074938;28;20518;-75
2023/06/06 07:44:26;;;;;;;27.97;25.83;;;;;;;;;;5075049;28;20453;-75
2023/06/06 07:46:53;;;;;;;28.73;26.43;;;;;;;;;;5073582;28;20531;-75
2023/06/06 07:49:20;;;;;;;28.13;26.10;;;;;;;;;;5074370;28;20503;-75
2023/06/06 07:51:47;;;;;;;28.80;26.80;;;;;;;;;;5074813;28;20453;-75
2023/06/06 07:54:14;;;;;;;27.17;25.37;;;;;;;;;;5074738;28;20453;-75
2023/06/06 07:56:41;;;;;;;27.30;25.40;;;;;;;;;;5074244;28;20424;-76
2023/06/06 07:59:10;;;;;;;28.07;26.00;;;;;;;;;;5074037;28;20502;-74
2023/06/06 08:01:37;;;;;;;28.90;26.20;;;;;;;;;;5074589;28;20481;-75
2023/06/06 08:04:07;;;;;;;27.27;25.27;;;;;;;;;;5074274;28;20427;-77
2023/06/06 08:06:37;;;;;;;28.37;26.53;;;;;;;;;;5073780;28;20923;-77
2023/06/06 08:09:06;;;;;;;27.40;25.30;;;;;;;;;;5073993;28;20787;-77
2023/06/06 08:11:33;;;;;;;25.87;24.17;;;;;;;;;;5074302;28;20484;-75
2023/06/06 08:14:00;;;;;;;26.63;24.47;;;;;;;;;;5074301;28;20456;-76
2023/06/06 08:16:28;;;;;;;27.17;25.20;;;;;;;;;;5073906;28;20450;-75
2023/06/06 08:18:55;;;;;;;26.33;24.73;;;;;;;;;;5074444;28;20485;-75
2023/06/06 08:21:23;;;;;;;27.53;25.47;;;;;;;;;;5074400;28;20469;-74
2023/06/06 08:23:50;;;;;;;26.20;24.57;;;;;;;;;;5073987;28;20784;-76
2023/06/06 08:26:16;;;;;;;26.43;24.73;;;;;;;;;;5072793;28;20465;-75
2023/06/06 08:28:44;;;;;;;23.83;22.33;;;;;;;;;;5073676;28;20515;-76
2023/06/06 08:31:13;;;;;;;26.00;24.20;;;;;;;;;;5074088;28;20441;-76
2023/06/06 08:33:42;;;;;;;24.57;22.97;;;;;;;;;;5073762;28;20457;-74
2023/06/06 08:36:09;;;;;;;25.47;23.47;;;;;;;;;;5073427;28;20420;-75
2023/06/06 08:38:36;;;;;;;27.33;25.13;;;;;;;;;;5073939;28;20547;-77
2023/06/06 08:41:04;;;;;;;25.53;23.83;;;;;;;;;;5074172;28;20458;-77
2023/06/06 08:43:36;;;;;;;26.33;24.53;;;;;;;;;;5074348;28;20797;-77
2023/06/06 08:46:03;;;;;;;25.43;23.63;;;;;;;;;;5073374;28;20441;-77
2023/06/06 08:48:30;;;;;;;25.00;23.40;;;;;;;;;;5073550;28;20519;-74
2023/06/06 08:51:00;;;;;;;26.93;24.83;;;;;;;;;;5073420;28;21155;-74
2023/06/06 08:53:27;;;;;;;24.87;23.23;;;;;;;;;;5073888;28;20457;-75
2023/06/06 08:55:57;;;;;;;26.23;24.57;;;;;;;;;;5073081;28;20449;-75
2023/06/06 08:58:24;;;;;;;26.67;24.77;;;;;;;;;;5073175;28;20543;-77
2023/06/06 09:00:51;;;;;;;26.57;24.67;;;;;;;;;;5072701;28;20469;-78
2023/06/06 09:03:18;;;;;;;26.87;24.90;;;;;;;;;;5073478;28;20476;-75
2023/06/06 09:05:46;;;;;;;25.20;23.70;;;;;;;;;;5073020;28;20520;-77
2023/06/06 09:08:15;;;;;;;26.17;24.30;;;;;;;;;;5073409;28;20457;-75
2023/06/06 09:10:42;;;;;;;27.00;24.80;;;;;;;;;;5073415;28;20466;-75
2023/06/06 09:13:09;;;;;;;27.20;25.50;;;;;;;;;;5073426;28;20462;-77
2023/06/06 09:15:36;;;;;;;26.83;25.00;;;;;;;;;;5073069;28;20507;-76
2023/06/06 09:18:03;;;;;;;26.33;24.63;;;;;;;;;;5073168;28;20515;-75
2023/06/06 09:20:30;;;;;;;26.57;24.53;;;;;;;;;;5072963;28;20539;-75
2023/06/06 09:23:00;;;;;;;26.53;24.70;;;;;;;;;;5072819;28;20476;-75
2023/06/06 09:25:28;;;;;;;26.67;24.67;;;;;;;;;;5073125;28;20441;-75
2023/06/06 09:27:59;;;;;;;26.17;24.37;;;;;;;;;;5073025;28;20507;-75
2023/06/06 09:30:27;;;;;;;26.43;24.60;;;;;;;;;;5073070;28;20508;-75
2023/06/06 09:32:56;;;;;;;27.60;25.20;;;;;;;;;;5073053;28;20807;-75
2023/06/06 09:35:23;;;;;;;26.30;24.50;;;;;;;;;;5073088;28;20883;-76
2023/06/06 09:37:50;;;;;;;25.40;23.60;;;;;;;;;;5072291;28;20567;-76
2023/06/06 09:40:18;;;;;;;26.00;24.17;;;;;;;;;;5072787;28;20492;-76
2023/06/06 09:42:47;;;;;;;27.37;25.33;;;;;;;;;;5073055;28;20454;-75
2023/06/06 09:45:15;;;;;;;26.10;24.40;;;;;;;;;;5072785;28;20446;-75
2023/06/06 09:47:42;;;;;;;25.50;23.90;;;;;;;;;;5072166;28;20427;-75
2023/06/06 09:50:10;;;;;;;26.10;24.47;;;;;;;;;;5072248;28;20943;-76
2023/06/06 09:52:37;;;;;;;26.70;24.80;;;;;;;;;;5073239;28;20453;-75
2023/06/06 09:55:06;;;;;;;28.77;26.40;;;;;;;;;;5072672;28;20495;-75
2023/06/06 09:57:35;;;;;;;27.20;25.30;;;;;;;;;;5072465;28;20416;-79
2023/06/06 10:00:09;;;;;;;27.57;25.77;;;;;;;;;;5072234;28;21098;-77
2023/06/06 10:02:41;;;;;;;28.20;26.50;;;;;;;;;;5067268;28;20819;-76
2023/06/06 10:05:09;;;;;;;27.93;26.03;;;;;;;;;;5052983;28;20431;-78
2023/06/06 10:07:37;;;;;;;27.70;25.90;;;;;;;;;;5051541;28;20519;-75
2023/06/06 10:10:04;;;;;;;27.43;25.53;;;;;;;;;;5052121;28;20544;-75
2023/06/06 10:12:31;;;;;;;27.50;25.30;;;;;;;;;;5055904;28;20450;-76
2023/06/06 10:14:59;;;;;;;26.27;24.67;;;;;;;;;;5056739;28;20464;-75
2023/06/06 10:17:27;;;;;;;27.67;25.87;;;;;;;;;;5056058;28;20792;-75
2023/06/06 10:20:00;;;;;;;28.47;26.50;;;;;;;;;;5056174;28;20486;-75
2023/06/06 10:22:27;;;;;;;27.40;25.50;;;;;;;;;;5056466;28;20455;-75
2023/06/06 10:24:55;;;;;;;26.87;25.27;;;;;;;;;;5056579;28;20450;-76
2023/06/06 10:27:28;;;;;;;26.83;25.23;;;;;;;;;;5074367;28;20474;-86
2023/06/06 10:29:59;;;;;;;27.00;25.27;;;;;;;;;;5082661;28;20940;-87
2023/06/06 10:32:31;;;;;;;26.40;24.63;;;;;;;;;;5082274;28;20524;-86
2023/06/06 10:34:59;;;;;;;26.70;25.00;;;;;;;;;;5082356;28;20434;-87
2023/06/06 10:37:26;;;;;;;27.53;25.73;;;;;;;;;;5080120;28;20434;-78
2023/06/06 10:40:00;;;;;;;26.60;25.00;;;;;;;;;;5077945;28;20899;-79
2023/06/06 10:42:36;;;;;;;27.87;25.87;;;;;;;;;;5077215;28;21014;-78
2023/06/06 10:45:03;;;;;;;28.50;26.70;;;;;;;;;;5077876;28;20448;-84
2023/06/06 10:47:33;;;;;;;26.60;24.90;;;;;;;;;;5077745;28;20833;-82
2023/06/06 10:50:17;;;;;;;27.20;25.23;;;;;;;;;;5077625;28;20460;-82
2023/06/06 10:52:44;;;;;;;26.50;24.90;;;;;;;;;;5059425;28;20401;-78
2023/06/06 10:55:15;;;;;;;26.07;24.50;;;;;;;;;;5055272;28;20458;-76
2023/06/06 10:57:49;;;;;;;26.37;24.67;;;;;;;;;;5056038;28;20430;-77
2023/06/06 11:00:17;;;;;;;28.00;25.70;;;;;;;;;;5056402;28;20486;-77
2023/06/06 11:02:46;;;;;;;25.93;24.17;;;;;;;;;;5057010;28;20451;-76
2023/06/06 11:05:13;;;;;;;28.00;26.20;;;;;;;;;;5056432;28;21001;-81
2023/06/06 11:07:41;;;;;;;26.83;25.03;;;;;;;;;;5074196;28;20456;-84
2023/06/06 11:10:08;;;;;;;27.23;24.97;;;;;;;;;;5078506;28;20502;-86
2023/06/06 11:12:35;;;;;;;26.17;24.37;;;;;;;;;;5076003;28;20420;-76
2023/06/06 11:15:04;;;;;;;26.97;25.27;;;;;;;;;;5075870;28;20446;-77
2023/06/06 11:17:43;;;;;;;26.73;24.77;;;;;;;;;;5075472;28;20496;-76
2023/06/06 11:20:18;;;;;;;26.40;24.47;;;;;;;;;;5075405;28;20485;-76
2023/06/06 11:22:51;;;;;;;26.17;24.47;;;;;;;;;;5075132;28;20434;-84
2023/06/06 11:25:23;;;;;;;26.60;24.67;;;;;;;;;;5077240;28;20465;-82
2023/06/06 11:27:52;;;;;;;26.57;24.83;;;;;;;;;;5076363;28;20442;-81
2023/06/06 11:30:19;;;;;;;27.30;25.50;;;;;;;;;;5077685;28;20440;-83
2023/06/06 11:32:46;;;;;;;27.30;25.30;;;;;;;;;;5077234;28;21096;-83
2023/06/06 11:35:17;;;;;;;26.43;24.80;;;;;;;;;;5078110;28;20852;-82
2023/06/06 11:37:45;;;;;;;26.10;24.20;;;;;;;;;;5076769;28;20426;-83
2023/06/06 11:40:12;;;;;;;26.13;24.30;;;;;;;;;;5077713;28;20489;-83
2023/06/06 11:42:43;;;;;;;27.00;24.80;;;;;;;;;;5076911;28;20457;-81
2023/06/06 11:45:14;;;;;;;26.60;24.83;;;;;;;;;;5078997;28;20453;-85
2023/06/06 11:47:41;;;;;;;25.87;24.17;;;;;;;;;;5078294;28;20409;-84
2023/06/06 11:50:10;;;;;;;26.60;24.90;;;;;;;;;;5077054;28;20440;-83
2023/06/06 11:52:48;;;;;;;26.33;24.50;;;;;;;;;;5077959;28;20479;-83
2023/06/06 11:55:16;;;;;;;26.03;24.33;;;;;;;;;;5076865;28;20477;-82
2023/06/06 11:57:43;;;;;;;26.20;24.50;;;;;;;;;;5076663;28;20560;-83
2023/06/06 12:00:12;;;;;;;27.17;25.30;;;;;;;;;;5077221;28;20577;-83
2023/06/06 12:02:40;;;;;;;25.90;24.27;;;;;;;;;;5077074;28;20461;-83
2023/06/06 12:05:17;;;;;;;26.77;25.07;;;;;;;;;;5077766;28;20499;-83
2023/06/06 12:07:44;;;;;;;25.90;24.30;;;;;;;;;;5076506;28;20944;-83
2023/06/06 12:10:13;;;;;;;25.33;23.70;;;;;;;;;;5077115;28;20559;-84
2023/06/06 12:12:45;;;;;;;26.93;24.90;;;;;;;;;;5078448;28;20413;-83
2023/06/06 12:15:12;;;;;;;26.87;25.17;;;;;;;;;;5077013;28;20430;-83
2023/06/06 12:17:39;;;;;;;25.57;23.77;;;;;;;;;;5076171;28;20515;-83
2023/06/06 12:20:07;;;;;;;24.73;23.23;;;;;;;;;;5075726;28;20494;-84
2023/06/06 12:22:35;;;;;;;26.70;25.10;;;;;;;;;;5076488;28;20454;-83
2023/06/06 12:25:02;;;;;;;26.23;24.63;;;;;;;;;;5076602;28;21055;-83
2023/06/06 12:27:33;;;;;;;26.30;24.60;;;;;;;;;;5076382;28;20454;-83
2023/06/06 12:30:01;;;;;;;26.63;24.93;;;;;;;;;;5078579;28;20462;-86
2023/06/06 12:32:29;;;;;;;25.33;23.83;;;;;;;;;;5075901;28;20523;-84
2023/06/06 12:35:01;;;;;;;27.10;25.20;;;;;;;;;;5075759;28;21013;-83
2023/06/06 12:37:36;;;;;;;25.87;24.27;;;;;;;;;;5075753;28;20517;-83
2023/06/06 12:40:08;;;;;;;26.60;24.77;;;;;;;;;;5075647;28;20459;-83
2023/06/06 12:42:37;;;;;;;27.30;25.37;;;;;;;;;;5075397;28;20477;-83
2023/06/06 12:45:04;;;;;;;26.53;24.83;;;;;;;;;;5075982;28;20863;-82
2023/06/06 12:47:31;;;;;;;26.57;24.67;;;;;;;;;;5075300;28;20424;-83
2023/06/06 12:49:58;;;;;;;27.80;25.90;;;;;;;;;;5076000;28;20967;-83
2023/06/06 12:52:25;;;;;;;27.90;25.73;;;;;;;;;;5076060;28;20443;-82
2023/06/06 12:54:52;;;;;;;26.93;25.13;;;;;;;;;;5076519;28;20432;-85
2023/06/06 12:57:19;;;;;;;28.10;25.67;;;;;;;;;;5076350;28;20446;-81
2023/06/06 12:59:48;;;;;;;26.57;24.97;;;;;;;;;;5078470;28;20507;-84
2023/06/06 13:02:16;;;;;;;28.40;26.60;;;;;;;;;;5078995;28;20420;-83
2023/06/06 13:04:43;;;;;;;27.27;25.27;;;;;;;;;;5080050;28;20759;-84
2023/06/06 13:07:11;;;;;;;26.17;24.57;;;;;;;;;;5079923;28;20432;-84
2023/06/06 13:09:38;;;;;;;26.60;24.70;;;;;;;;;;5081566;28;20432;-84
2023/06/06 13:12:07;;;;;;;26.40;24.73;;;;;;;;;;5082278;28;20428;-84
2023/06/06 13:14:35;;;;;;;26.20;24.50;;;;;;;;;;5082429;28;20413;-84
2023/06/06 13:17:04;;;;;;;26.40;24.70;;;;;;;;;;5080639;28;20441;-87
2023/06/06 13:19:31;;;;;;;25.50;23.90;;;;;;;;;;5079255;28;20506;-85
2023/06/06 13:21:58;;;;;;;25.73;23.93;;;;;;;;;;5076541;28;20471;-82
2023/06/06 13:24:25;;;;;;;25.13;23.63;;;;;;;;;;5077290;28;20491;-84
2023/06/06 13:26:52;;;;;;;25.90;24.20;;;;;;;;;;5080838;28;20464;-81
2023/06/06 13:29:19;;;;;;;25.37;23.77;;;;;;;;;;5096902;28;20495;-81
2023/06/06 13:31:46;;;;;;;25.47;23.80;;;;;;;;;;5096811;28;20444;-82
2023/06/06 13:34:15;;;;;;;24.33;22.63;;;;;;;;;;5090804;28;20849;-84
2023/06/06 13:36:42;;;;;;;25.57;23.53;;;;;;;;;;5079301;28;20461;-85
2023/06/06 13:39:10;;;;;;;24.27;22.77;;;;;;;;;;5079715;28;20461;-84
2023/06/06 13:41:37;;;;;;;24.77;23.23;;;;;;;;;;5081671;28;20469;-83
2023/06/06 13:44:04;;;;;;;25.13;23.43;;;;;;;;;;5081991;28;20450;-85
2023/06/06 13:46:32;;;;;;;26.23;24.40;;;;;;;;;;5078542;28;20520;-83
2023/06/06 13:49:01;;;;;;;25.37;23.67;;;;;;;;;;5079706;28;20409;-83
2023/06/06 13:51:30;;;;;;;25.37;23.67;;;;;;;;;;5078187;28;20504;-85
2023/06/06 13:53:57;;;;;;;24.90;23.20;;;;;;;;;;5078799;28;20435;-85
2023/06/06 13:56:26;;;;;;;25.60;23.97;;;;;;;;;;5078402;28;20507;-85
2023/06/06 13:58:54;;;;;;;24.73;23.13;;;;;;;;;;5078885;28;20850;-85
2023/06/06 14:01:22;;;;;;;25.63;23.57;;;;;;;;;;5078592;28;20521;-85
2023/06/06 14:03:49;;;;;;;26.10;24.03;;;;;;;;;;5077639;28;20466;-85
2023/06/06 14:06:16;;;;;;;25.60;23.63;;;;;;;;;;5077691;28;20499;-86
2023/06/06 14:08:44;;;;;;;24.60;22.70;;;;;;;;;;5078100;28;20780;-85
2023/06/06 14:11:11;;;;;;;25.57;23.83;;;;;;;;;;5078204;28;20452;-85
2023/06/06 14:13:39;;;;;;;24.63;22.93;;;;;;;;;;5078211;28;20453;-84
2023/06/06 14:16:06;;;;;;;24.93;23.30;;;;;;;;;;5077477;28;20539;-85
2023/06/06 14:18:33;;;;;;;25.27;23.57;;;;;;;;;;5076843;28;20444;-83
2023/06/06 14:21:19;;;;;;;25.57;23.80;;;;;;;;;;5075658;28;20489;-83